sensor_id;sensor_type;location;lat;lon;timestamp;temperature;humidity
24382;DHT22;12502;50.678;7.172;2022-10-20T00:03:49;13.00;99.90
24382;DHT22;12502;50.678;7.172;2022-10-20T00:08:52;13.00;99.90
24382;DHT22;12502;50.678;7.172;2022-10-20T00:13:55;13.00;99.90
24382;DHT22;12502;50.678;7.172;2022-10-20T00:18:58;13.00;99.90
24382;DHT22;12502;50.678;7.172;2022-10-20T00:24:00;13.00;99.90
24382;DHT22;12502;50.678;7.172;2022-10-20T00:29:03;12.90;99.90
24382;DHT22;12502;50.678;7.172;2022-10-20T00:34:05;12.90;99.90
24382;DHT22;12502;50.678;7.172;2022-10-20T00:39:07;12.80;99.90
24382;DHT22;12502;50.678;7.172;2022-10-20T00:49:46;12.70;99.90
24382;DHT22;12502;50.678;7.172;2022-10-20T00:54:48;12.60;99.90
24382;DHT22;12502;50.678;7.172;2022-10-20T00:59:51;12.60;99.90
24382;DHT22;12502;50.678;7.172;2022-10-20T01:04:53;12.50;99.90
24382;DHT22;12502;50.678;7.172;2022-10-20T01:09:54;12.50;99.90
24382;DHT22;12502;50.678;7.172;2022-10-20T01:30:56;12.30;99.90
24382;DHT22;12502;50.678;7.172;2022-10-20T01:36:03;12.20;99.90
24382;DHT22;12502;50.678;7.172;2022-10-20T01:41:48;12.20;99.90
24382;DHT22;12502;50.678;7.172;2022-10-20T01:46:47;12.10;99.90
24382;DHT22;12502;50.678;7.172;2022-10-20T01:51:49;12.00;99.90
24382;DHT22;12502;50.678;7.172;2022-10-20T02:07:42;11.90;99.90
24382;DHT22;12502;50.678;7.172;2022-10-20T02:12:48;11.90;99.90
24382;DHT22;12502;50.678;7.172;2022-10-20T02:17:58;11.80;99.90
24382;DHT22;12502;50.678;7.172;2022-10-20T02:23:02;11.80;99.90
24382;DHT22;12502;50.678;7.172;2022-10-20T02:28:09;11.80;99.90
24382;DHT22;12502;50.678;7.172;2022-10-20T02:33:11;11.80;99.90
24382;DHT22;12502;50.678;7.172;2022-10-20T02:38:13;11.70;99.90
24382;DHT22;12502;50.678;7.172;2022-10-20T02:43:15;11.70;99.90
24382;DHT22;12502;50.678;7.172;2022-10-20T02:48:17;11.70;99.90
24382;DHT22;12502;50.678;7.172;2022-10-20T02:53:18;11.70;99.90
24382;DHT22;12502;50.678;7.172;2022-10-20T02:58:20;11.70;99.90
24382;DHT22;12502;50.678;7.172;2022-10-20T03:03:22;11.60;99.90
24382;DHT22;12502;50.678;7.172;2022-10-20T03:08:23;11.60;99.90
24382;DHT22;12502;50.678;7.172;2022-10-20T03:13:25;11.70;99.90
24382;DHT22;12502;50.678;7.172;2022-10-20T03:18:27;11.50;99.90
24382;DHT22;12502;50.678;7.172;2022-10-20T03:23:29;11.50;99.90
24382;DHT22;12502;50.678;7.172;2022-10-20T03:28:31;11.50;99.90
24382;DHT22;12502;50.678;7.172;2022-10-20T03:33:33;11.50;99.90
24382;DHT22;12502;50.678;7.172;2022-10-20T03:38:35;11.40;99.90
24382;DHT22;12502;50.678;7.172;2022-10-20T03:43:40;11.40;99.90
24382;DHT22;12502;50.678;7.172;2022-10-20T03:48:41;11.40;99.90
24382;DHT22;12502;50.678;7.172;2022-10-20T03:53:43;11.40;99.90
24382;DHT22;12502;50.678;7.172;2022-10-20T03:58:45;11.40;99.90
24382;DHT22;12502;50.678;7.172;2022-10-20T04:03:47;11.40;99.90
24382;DHT22;12502;50.678;7.172;2022-10-20T04:08:49;11.40;99.90
24382;DHT22;12502;50.678;7.172;2022-10-20T04:13:51;11.30;99.90
24382;DHT22;12502;50.678;7.172;2022-10-20T04:18:54;11.30;99.90
24382;DHT22;12502;50.678;7.172;2022-10-20T04:23:56;11.30;99.90
24382;DHT22;12502;50.678;7.172;2022-10-20T04:28:58;11.20;99.90
24382;DHT22;12502;50.678;7.172;2022-10-20T04:33:59;11.20;99.90
24382;DHT22;12502;50.678;7.172;2022-10-20T04:39:04;11.20;99.90
24382;DHT22;12502;50.678;7.172;2022-10-20T04:44:06;11.20;99.90
24382;DHT22;12502;50.678;7.172;2022-10-20T04:49:08;11.20;99.90
24382;DHT22;12502;50.678;7.172;2022-10-20T04:54:10;11.20;99.90
24382;DHT22;12502;50.678;7.172;2022-10-20T04:59:12;11.20;99.90
24382;DHT22;12502;50.678;7.172;2022-10-20T05:04:14;11.20;99.90
24382;DHT22;12502;50.678;7.172;2022-10-20T05:09:22;11.20;99.90
24382;DHT22;12502;50.678;7.172;2022-10-20T05:14:24;11.20;99.90
24382;DHT22;12502;50.678;7.172;2022-10-20T05:19:25;11.20;99.90
24382;DHT22;12502;50.678;7.172;2022-10-20T05:24:27;11.20;99.90
24382;DHT22;12502;50.678;7.172;2022-10-20T05:29:30;11.20;99.90
24382;DHT22;12502;50.678;7.172;2022-10-20T05:34:32;11.20;99.90
24382;DHT22;12502;50.678;7.172;2022-10-20T05:39:34;11.10;99.90
24382;DHT22;12502;50.678;7.172;2022-10-20T05:44:35;11.10;99.90
24382;DHT22;12502;50.678;7.172;2022-10-20T05:49:37;11.10;99.90
24382;DHT22;12502;50.678;7.172;2022-10-20T05:54:39;11.10;99.90
24382;DHT22;12502;50.678;7.172;2022-10-20T05:59:41;11.10;99.90
24382;DHT22;12502;50.678;7.172;2022-10-20T06:04:43;11.10;99.90
24382;DHT22;12502;50.678;7.172;2022-10-20T06:09:45;11.10;99.90
24382;DHT22;12502;50.678;7.172;2022-10-20T06:14:47;11.10;99.90
24382;DHT22;12502;50.678;7.172;2022-10-20T06:19:48;11.10;99.90
24382;DHT22;12502;50.678;7.172;2022-10-20T06:24:51;11.10;99.90
24382;DHT22;12502;50.678;7.172;2022-10-20T06:29:53;11.20;99.90
24382;DHT22;12502;50.678;7.172;2022-10-20T06:34:55;11.20;99.90
24382;DHT22;12502;50.678;7.172;2022-10-20T06:39:58;11.20;99.90
24382;DHT22;12502;50.678;7.172;2022-10-20T06:44:59;11.20;99.90
24382;DHT22;12502;50.678;7.172;2022-10-20T06:50:01;11.30;99.90
24382;DHT22;12502;50.678;7.172;2022-10-20T06:55:03;11.40;99.90
24382;DHT22;12502;50.678;7.172;2022-10-20T07:00:05;11.40;99.90
24382;DHT22;12502;50.678;7.172;2022-10-20T07:05:07;11.50;99.90
24382;DHT22;12502;50.678;7.172;2022-10-20T07:10:09;11.60;99.90
24382;DHT22;12502;50.678;7.172;2022-10-20T07:15:11;11.60;99.90
24382;DHT22;12502;50.678;7.172;2022-10-20T07:20:13;11.70;99.90
24382;DHT22;12502;50.678;7.172;2022-10-20T07:25:15;11.70;99.90
24382;DHT22;12502;50.678;7.172;2022-10-20T07:30:17;11.70;99.90
24382;DHT22;12502;50.678;7.172;2022-10-20T07:35:19;11.80;99.90
24382;DHT22;12502;50.678;7.172;2022-10-20T07:40:21;11.90;99.90
24382;DHT22;12502;50.678;7.172;2022-10-20T07:45:22;11.90;99.90
24382;DHT22;12502;50.678;7.172;2022-10-20T07:50:25;12.00;99.90
24382;DHT22;12502;50.678;7.172;2022-10-20T07:55:26;12.10;99.90
24382;DHT22;12502;50.678;7.172;2022-10-20T08:00:45;12.10;99.90
24382;DHT22;12502;50.678;7.172;2022-10-20T08:05:46;12.10;99.90
24382;DHT22;12502;50.678;7.172;2022-10-20T08:10:48;12.20;99.90
24382;DHT22;12502;50.678;7.172;2022-10-20T08:15:50;12.20;99.90
24382;DHT22;12502;50.678;7.172;2022-10-20T08:26:10;12.30;99.90
24382;DHT22;12502;50.678;7.172;2022-10-20T08:31:12;12.30;99.90
24382;DHT22;12502;50.678;7.172;2022-10-20T08:36:14;12.30;99.90
24382;DHT22;12502;50.678;7.172;2022-10-20T08:41:21;12.30;99.90
24382;DHT22;12502;50.678;7.172;2022-10-20T08:46:31;12.30;99.90
24382;DHT22;12502;50.678;7.172;2022-10-20T08:51:35;12.30;99.90
24382;DHT22;12502;50.678;7.172;2022-10-20T08:56:38;12.40;99.90
24382;DHT22;12502;50.678;7.172;2022-10-20T09:01:41;12.40;99.90
24382;DHT22;12502;50.678;7.172;2022-10-20T09:06:44;12.40;99.90
24382;DHT22;12502;50.678;7.172;2022-10-20T09:11:49;12.60;99.90
24382;DHT22;12502;50.678;7.172;2022-10-20T09:16:51;12.50;99.90
24382;DHT22;12502;50.678;7.172;2022-10-20T09:22:05;12.50;99.90
24382;DHT22;12502;50.678;7.172;2022-10-20T09:27:22;12.50;99.90
24382;DHT22;12502;50.678;7.172;2022-10-20T09:32:33;12.60;99.90
24382;DHT22;12502;50.678;7.172;2022-10-20T09:43:10;12.70;99.90
24382;DHT22;12502;50.678;7.172;2022-10-20T09:48:28;12.80;99.90
24382;DHT22;12502;50.678;7.172;2022-10-20T09:53:53;12.80;99.90
24382;DHT22;12502;50.678;7.172;2022-10-20T09:58:57;12.90;99.90
24382;DHT22;12502;50.678;7.172;2022-10-20T10:03:59;12.90;99.90
24382;DHT22;12502;50.678;7.172;2022-10-20T10:09:31;12.90;99.90
24382;DHT22;12502;50.678;7.172;2022-10-20T10:14:35;13.00;99.90
24382;DHT22;12502;50.678;7.172;2022-10-20T10:19:37;13.00;99.90
24382;DHT22;12502;50.678;7.172;2022-10-20T10:24:44;13.10;99.90
24382;DHT22;12502;50.678;7.172;2022-10-20T10:29:47;13.10;99.90
24382;DHT22;12502;50.678;7.172;2022-10-20T10:35:09;13.30;99.90
24382;DHT22;12502;50.678;7.172;2022-10-20T10:40:18;13.30;99.90
24382;DHT22;12502;50.678;7.172;2022-10-20T11:27:55;13.70;99.90
24382;DHT22;12502;50.678;7.172;2022-10-20T11:33:15;13.70;99.90
24382;DHT22;12502;50.678;7.172;2022-10-20T11:38:49;13.70;99.90
24382;DHT22;12502;50.678;7.172;2022-10-20T11:44:05;13.70;99.90
24382;DHT22;12502;50.678;7.172;2022-10-20T11:49:08;13.70;99.90
24382;DHT22;12502;50.678;7.172;2022-10-20T11:54:40;13.70;99.90
24382;DHT22;12502;50.678;7.172;2022-10-20T12:00:04;13.70;99.90
24382;DHT22;12502;50.678;7.172;2022-10-20T12:05:28;13.70;99.90
24382;DHT22;12502;50.678;7.172;2022-10-20T12:15:51;13.60;99.90
24382;DHT22;12502;50.678;7.172;2022-10-20T12:20:58;13.70;99.90
24382;DHT22;12502;50.678;7.172;2022-10-20T12:26:01;13.60;99.90
24382;DHT22;12502;50.678;7.172;2022-10-20T12:31:04;13.60;99.90
24382;DHT22;12502;50.678;7.172;2022-10-20T12:41:31;13.60;99.90
24382;DHT22;12502;50.678;7.172;2022-10-20T12:46:38;13.60;99.90
24382;DHT22;12502;50.678;7.172;2022-10-20T12:51:53;13.70;99.90
24382;DHT22;12502;50.678;7.172;2022-10-20T12:56:58;13.70;99.90
24382;DHT22;12502;50.678;7.172;2022-10-20T13:07:09;13.80;99.90
24382;DHT22;12502;50.678;7.172;2022-10-20T13:12:24;13.80;99.90
24382;DHT22;12502;50.678;7.172;2022-10-20T13:17:39;13.80;99.90
24382;DHT22;12502;50.678;7.172;2022-10-20T13:22:50;13.80;99.90
24382;DHT22;12502;50.678;7.172;2022-10-20T13:28:13;13.80;99.90
24382;DHT22;12502;50.678;7.172;2022-10-20T13:39:12;13.80;99.90
24382;DHT22;12502;50.678;7.172;2022-10-20T13:44:31;13.80;99.90
24382;DHT22;12502;50.678;7.172;2022-10-20T13:49:54;13.80;99.90
24382;DHT22;12502;50.678;7.172;2022-10-20T13:54:59;13.80;99.90
24382;DHT22;12502;50.678;7.172;2022-10-20T14:00:27;13.80;99.90
24382;DHT22;12502;50.678;7.172;2022-10-20T14:05:36;13.80;99.90
24382;DHT22;12502;50.678;7.172;2022-10-20T14:10:47;13.80;99.90
24382;DHT22;12502;50.678;7.172;2022-10-20T14:15:53;13.90;99.90
24382;DHT22;12502;50.678;7.172;2022-10-20T14:26:06;13.90;99.90
24382;DHT22;12502;50.678;7.172;2022-10-20T14:31:11;13.90;99.90
24382;DHT22;12502;50.678;7.172;2022-10-20T14:36:23;13.90;99.90
24382;DHT22;12502;50.678;7.172;2022-10-20T14:41:33;13.90;99.90
24382;DHT22;12502;50.678;7.172;2022-10-20T14:46:39;13.90;99.90
24382;DHT22;12502;50.678;7.172;2022-10-20T14:51:59;13.90;99.90
24382;DHT22;12502;50.678;7.172;2022-10-20T15:02:27;13.90;99.90
24382;DHT22;12502;50.678;7.172;2022-10-20T15:07:33;13.90;99.90
24382;DHT22;12502;50.678;7.172;2022-10-20T15:17:39;14.00;99.90
24382;DHT22;12502;50.678;7.172;2022-10-20T15:22:41;14.00;99.90
24382;DHT22;12502;50.678;7.172;2022-10-20T15:27:43;14.00;99.90
24382;DHT22;12502;50.678;7.172;2022-10-20T15:32:45;14.00;99.90
24382;DHT22;12502;50.678;7.172;2022-10-20T15:37:49;14.00;99.90
24382;DHT22;12502;50.678;7.172;2022-10-20T15:42:51;14.00;99.90
24382;DHT22;12502;50.678;7.172;2022-10-20T15:47:53;14.00;99.90
24382;DHT22;12502;50.678;7.172;2022-10-20T15:52:54;14.00;99.90
24382;DHT22;12502;50.678;7.172;2022-10-20T15:57:56;14.00;99.90
24382;DHT22;12502;50.678;7.172;2022-10-20T16:02:59;14.00;99.90
24382;DHT22;12502;50.678;7.172;2022-10-20T16:08:01;14.00;99.90
24382;DHT22;12502;50.678;7.172;2022-10-20T16:13:03;14.00;99.90
24382;DHT22;12502;50.678;7.172;2022-10-20T16:18:05;14.00;99.90
24382;DHT22;12502;50.678;7.172;2022-10-20T16:23:10;13.90;99.90
24382;DHT22;12502;50.678;7.172;2022-10-20T16:28:12;13.90;99.90
24382;DHT22;12502;50.678;7.172;2022-10-20T16:33:14;13.90;99.90
24382;DHT22;12502;50.678;7.172;2022-10-20T16:38:15;13.90;99.90
24382;DHT22;12502;50.678;7.172;2022-10-20T16:43:17;13.90;99.90
24382;DHT22;12502;50.678;7.172;2022-10-20T16:48:19;13.90;99.90
24382;DHT22;12502;50.678;7.172;2022-10-20T16:53:21;13.90;99.90
24382;DHT22;12502;50.678;7.172;2022-10-20T16:58:24;13.90;99.90
24382;DHT22;12502;50.678;7.172;2022-10-20T17:03:25;13.90;99.90
24382;DHT22;12502;50.678;7.172;2022-10-20T17:08:28;13.90;99.90
24382;DHT22;12502;50.678;7.172;2022-10-20T17:13:32;13.90;99.90
24382;DHT22;12502;50.678;7.172;2022-10-20T17:18:35;14.00;99.90
24382;DHT22;12502;50.678;7.172;2022-10-20T17:23:38;13.90;99.90
24382;DHT22;12502;50.678;7.172;2022-10-20T17:28:43;13.90;99.90
24382;DHT22;12502;50.678;7.172;2022-10-20T17:33:46;13.80;99.90
24382;DHT22;12502;50.678;7.172;2022-10-20T17:38:52;13.90;99.90
24382;DHT22;12502;50.678;7.172;2022-10-20T17:43:58;13.90;99.90
24382;DHT22;12502;50.678;7.172;2022-10-20T17:49:01;14.00;99.90
24382;DHT22;12502;50.678;7.172;2022-10-20T17:54:03;14.00;99.90
24382;DHT22;12502;50.678;7.172;2022-10-20T17:59:05;14.00;99.90
24382;DHT22;12502;50.678;7.172;2022-10-20T18:04:13;14.00;99.90
24382;DHT22;12502;50.678;7.172;2022-10-20T18:09:16;14.10;99.90
24382;DHT22;12502;50.678;7.172;2022-10-20T18:14:18;14.20;99.90
24382;DHT22;12502;50.678;7.172;2022-10-20T18:19:21;14.20;99.90
24382;DHT22;12502;50.678;7.172;2022-10-20T18:24:24;14.10;99.90
24382;DHT22;12502;50.678;7.172;2022-10-20T18:29:27;14.00;99.90
24382;DHT22;12502;50.678;7.172;2022-10-20T18:34:30;14.20;99.90
24382;DHT22;12502;50.678;7.172;2022-10-20T18:39:33;14.20;99.90
24382;DHT22;12502;50.678;7.172;2022-10-20T18:44:35;14.20;99.90
24382;DHT22;12502;50.678;7.172;2022-10-20T18:49:37;14.20;99.90
24382;DHT22;12502;50.678;7.172;2022-10-20T18:54:40;14.20;99.90
24382;DHT22;12502;50.678;7.172;2022-10-20T18:59:42;14.10;99.90
24382;DHT22;12502;50.678;7.172;2022-10-20T19:04:43;14.20;99.90
24382;DHT22;12502;50.678;7.172;2022-10-20T19:09:45;14.20;99.90
24382;DHT22;12502;50.678;7.172;2022-10-20T19:14:50;14.20;99.90
24382;DHT22;12502;50.678;7.172;2022-10-20T19:19:53;14.20;99.90
24382;DHT22;12502;50.678;7.172;2022-10-20T19:24:56;14.20;99.90
24382;DHT22;12502;50.678;7.172;2022-10-20T19:29:58;14.30;99.90
24382;DHT22;12502;50.678;7.172;2022-10-20T19:35:03;14.20;99.90
24382;DHT22;12502;50.678;7.172;2022-10-20T19:40:05;14.20;99.90
24382;DHT22;12502;50.678;7.172;2022-10-20T19:45:20;14.30;99.90
24382;DHT22;12502;50.678;7.172;2022-10-20T19:50:23;14.20;99.90
24382;DHT22;12502;50.678;7.172;2022-10-20T19:55:24;14.30;99.90
24382;DHT22;12502;50.678;7.172;2022-10-20T20:00:27;14.30;99.90
24382;DHT22;12502;50.678;7.172;2022-10-20T20:05:29;14.40;99.90
24382;DHT22;12502;50.678;7.172;2022-10-20T20:10:32;14.40;99.90
24382;DHT22;12502;50.678;7.172;2022-10-20T20:15:34;14.40;99.90
24382;DHT22;12502;50.678;7.172;2022-10-20T20:20:38;14.40;99.90
24382;DHT22;12502;50.678;7.172;2022-10-20T20:25:43;14.60;99.90
24382;DHT22;12502;50.678;7.172;2022-10-20T20:31:09;14.40;99.90
24382;DHT22;12502;50.678;7.172;2022-10-20T20:36:14;14.50;99.90
24382;DHT22;12502;50.678;7.172;2022-10-20T20:41:17;14.50;99.90
24382;DHT22;12502;50.678;7.172;2022-10-20T20:46:21;14.50;99.90
24382;DHT22;12502;50.678;7.172;2022-10-20T20:51:24;14.50;99.90
24382;DHT22;12502;50.678;7.172;2022-10-20T20:56:27;14.50;99.90
24382;DHT22;12502;50.678;7.172;2022-10-20T21:01:30;14.50;99.90
24382;DHT22;12502;50.678;7.172;2022-10-20T21:06:32;14.50;99.90
24382;DHT22;12502;50.678;7.172;2022-10-20T21:11:54;14.50;99.90
24382;DHT22;12502;50.678;7.172;2022-10-20T21:16:55;14.50;99.90
24382;DHT22;12502;50.678;7.172;2022-10-20T21:21:57;14.50;99.90
24382;DHT22;12502;50.678;7.172;2022-10-20T21:27:01;14.50;99.90
24382;DHT22;12502;50.678;7.172;2022-10-20T21:32:03;14.50;99.90
24382;DHT22;12502;50.678;7.172;2022-10-20T21:37:05;14.60;99.90
24382;DHT22;12502;50.678;7.172;2022-10-20T21:42:06;14.60;99.90
24382;DHT22;12502;50.678;7.172;2022-10-20T21:47:08;14.60;99.90
24382;DHT22;12502;50.678;7.172;2022-10-20T21:52:10;14.60;99.90
24382;DHT22;12502;50.678;7.172;2022-10-20T21:57:13;14.60;99.90
24382;DHT22;12502;50.678;7.172;2022-10-20T22:02:15;14.70;99.90
24382;DHT22;12502;50.678;7.172;2022-10-20T22:07:16;14.70;99.90
24382;DHT22;12502;50.678;7.172;2022-10-20T22:12:18;14.70;99.90
24382;DHT22;12502;50.678;7.172;2022-10-20T22:17:20;14.80;99.90
24382;DHT22;12502;50.678;7.172;2022-10-20T22:22:22;14.70;99.90
24382;DHT22;12502;50.678;7.172;2022-10-20T22:27:23;14.70;99.90
24382;DHT22;12502;50.678;7.172;2022-10-20T22:32:42;14.80;99.90
24382;DHT22;12502;50.678;7.172;2022-10-20T22:37:44;14.80;99.90
24382;DHT22;12502;50.678;7.172;2022-10-20T22:42:46;14.80;99.90
24382;DHT22;12502;50.678;7.172;2022-10-20T22:47:47;14.80;99.90
24382;DHT22;12502;50.678;7.172;2022-10-20T22:52:49;14.70;99.90
24382;DHT22;12502;50.678;7.172;2022-10-20T22:57:53;14.70;99.90
24382;DHT22;12502;50.678;7.172;2022-10-20T23:02:55;14.60;99.90
24382;DHT22;12502;50.678;7.172;2022-10-20T23:07:58;14.70;99.90
24382;DHT22;12502;50.678;7.172;2022-10-20T23:12:59;14.70;99.90
24382;DHT22;12502;50.678;7.172;2022-10-20T23:18:01;14.60;99.90
24382;DHT22;12502;50.678;7.172;2022-10-20T23:23:03;14.50;99.90
24382;DHT22;12502;50.678;7.172;2022-10-20T23:28:05;14.50;99.90
24382;DHT22;12502;50.678;7.172;2022-10-20T23:33:06;14.50;99.90
24382;DHT22;12502;50.678;7.172;2022-10-20T23:38:08;14.40;99.90
24382;DHT22;12502;50.678;7.172;2022-10-20T23:43:10;14.40;99.90
24382;DHT22;12502;50.678;7.172;2022-10-20T23:48:12;14.40;99.90
24382;DHT22;12502;50.678;7.172;2022-10-20T23:53:15;14.40;99.90
24382;DHT22;12502;50.678;7.172;2022-10-20T23:58:17;14.40;99.90
